2014 - 14th Annual Jack O Lantern Jog 5K JACK O'LANTERN JOG


2014 - 14th Annual Jack O Lantern Jog 5K

Age Group Results

October 26, 2014


Classic Race Services, LLC Classic Race Services


Men: Top Finishers 0-10 11-14 15-19 20-24 25-29 30-34 35-39 40-44 45-49 50-54 55-59 60-64 65-69 70-74
Women: Top Finishers 0-10 11-14 15-19 20-24 25-29 30-34 35-39 40-44 45-49 50-54 55-59 60-64 65-69 70-74 75-79

JACK O'LANTERN JOG

Top

Male Overall Winners

Place Name City Bib No Age Overall Total Time Pace
1 Justin Ingels Athens GA 724 32 1 17:35.8 5:40/M
Top

Female Overall Winners

Place Name City Bib No Age Overall Total Time Pace
1 Loraine Hillard Flowery Branch GA 611 55 8 23:17.3 7:31/M
Top

Male Masters Winners

Place Name City Bib No Age Overall Total Time Pace
1 Randy Ballew Watkinsville GA 519 61 5 22:25.3 7:14/M
Top

Female Masters Winners

Place Name City Bib No Age Overall Total Time Pace
1 Mary Beth Forwood Bishop GA 584 51 26 26:12.9 8:27/M
Top

Male 10 and under

Place Name City Bib No Age Overall Total Time Pace
1 Aidan Landrum Bogart GA 626 10 21 25:31.2 8:14/M
2 Brent Bishop Commerce GA 530 8 22 25:36.8 8:15/M
3 Will Bowick Monroe GA 539 10 24 26:00.6 8:23/M
4 Gavin Ford Royston GA 526 10 25 26:01.7 8:24/M
5 Chase Stephens Maysville GA 680 9 34 28:20.5 9:08/M
6 Dretavious Foster 727 10 49 30:44.8 9:55/M
7 Avery Smith Nicholson GA 672 8 55 31:23.1 10:07/M
8 Pi Dorminy Mcdonough GA 722 8 69 32:46.2 10:34/M
9 Trenton Bishop Commerce GA 533 10 70 32:46.5 10:34/M
10 Amidaus Sanchez Winder GA 737 10 71 32:51.1 10:36/M
11 David Andrew Duncan Bogart GA 576 8 85 34:48.2 11:14/M
12 Charlie Wheeler Commerce GA 695 8 88 35:14.2 11:22/M
13 Dawson Ausbon Commerce GA 514 10 103 38:01.1 12:16/M
14 Isaac Palmer Danielsville GA 642 10 118 40:23.0 13:02/M
15 Cole Dickerson Commerce GA 570 10 124 40:57.0 13:13/M
16 Mason Smith Nicholson GA 678 5 128 41:16.5 13:19/M
17 Mitchell Wilson Commerce GA 701 10 129 41:23.6 13:21/M
18 Skyler Pitts Lavonia GA 654 10 146 43:50.7 14:08/M
19 Owen Davis Athens GA 567 8 153 44:34.2 14:23/M
20 Carter Pennington Jefferson GA 648 8 163 47:52.5 15:26/M
21 Jerry Kietzman Watkinsville GA 621 6 184 53:57.0 17:24/M
22 Zachary Adair Bogart GA 503 4 189 1:06:53.1 21:35/M
Top

Female 10 and under

Place Name City Bib No Age Overall Total Time Pace
1 Dalty Friedman Commerce GA 585 8 58 31:52.0 10:17/M
2 Abby Seagraves Commerce GA 667 10 86 34:55.1 11:16/M
3 Cadence Janzer Commerce GA 614 9 91 36:19.4 11:43/M
4 Gracie Brown Commerce GA 542 8 93 36:44.0 11:51/M
5 Kadyn Barnett Commerce GA 521 10 109 39:13.4 12:39/M
6 Abby Marchman Athens GA 633 10 111 39:39.6 12:47/M
7 Kayden Massey Nicholson GA 637 10 131 41:33.8 13:24/M
8 Keely Shultz Danielsville GA 668 8 138 42:58.9 13:52/M
9 Harley Kate Smith Nicholson GA 675 8 139 43:02.1 13:53/M
10 Brenda Massey Nicholson GA 636 10 140 43:06.3 13:54/M
11 Chloe Smith Athens GA 673 8 148 44:10.8 14:15/M
12 Logan Kietzman Watkinsville GA 622 10 168 49:03.5 15:49/M
13 Katie Bielecki Commerce GA 529 10 172 49:52.7 16:05/M
14 Kaitlyn Weaver Commerce GA 692 9 173 49:54.1 16:06/M
15 Nadjah Jarrells Nicholson GA 617 10 181 53:13.0 17:10/M
16 Cora Dockery Commerce GA 571 10 188 1:04:51.9 20:55/M
Top

Male 11 to 14

Place Name City Bib No Age Overall Total Time Pace
1 Griffin Stephens Maysville GA 682 12 6 22:39.8 7:18/M
2 Jack Cooney Athens GA 557 12 36 28:59.9 9:21/M
3 Hezekiah Jarrells Nicholson GA 615 12 175 50:42.0 16:21/M
Top

Female 11 to 14

Place Name City Bib No Age Overall Total Time Pace
1 Caroline Duncan Bogart GA 574 11 16 24:39.7 7:57/M
2 Susie Dorminy Mcdonough GA 721 13 52 30:52.3 9:57/M
3 Kelsie Ballew Watkinsville GA 518 13 67 32:41.6 10:33/M
4 Becky Dorminy Mcdonough GA 723 11 101 37:55.7 12:14/M
5 Ryleigh Palmer Danielsville GA 644 13 160 47:10.8 15:13/M
Top

Male 15 to 19

Place Name City Bib No Age Overall Total Time Pace
1 Tommy Dorminy Mcdonough GA 720 16 4 21:12.5 6:50/M
2 Michael Berejikian Athens GA 528 16 33 28:15.2 9:07/M
Top

Female 15 to 19

Place Name City Bib No Age Overall Total Time Pace
1 Sarah Beth Johnson Loganville GA 619 16 27 26:39.1 8:36/M
2 Brianna Kuckuck Bethlehem GA 625 17 84 34:45.4 11:13/M
Top

Male 20 to 24

Place Name City Bib No Age Overall Total Time Pace
1 Ryan Pannell Good Hope GA 646 22 35 28:46.9 9:17/M
2 Thomas Fussell Walhalla SC 741 24 41 29:42.7 9:35/M
Top

Female 20 to 24

Place Name City Bib No Age Overall Total Time Pace
1 Briana Fetrow Alpharetta GA 581 24 29 27:02.2 8:43/M
2 Laura Hamilton Griffin GA 734 20 38 29:25.3 9:29/M
3 Lindsay Worsham Commerce GA 703 24 125 40:59.7 13:13/M
4 Julie Boyd Nicholson GA 540 22 141 43:10.0 13:55/M
5 Kayla Ballew Watkinsville GA 517 23 142 43:23.6 14:00/M
6 Allison Young Watkinsville GA 704 22 149 44:11.3 14:15/M
Top

Male 25 to 29

Place Name City Bib No Age Overall Total Time Pace
1 Luke Graycheck Athens GA 591 25 65 32:32.5 10:30/M
2 Charles Goodell Athens GA 590 26 106 38:57.1 12:34/M
Top

Female 25 to 29

Place Name City Bib No Age Overall Total Time Pace
1 Allison Arnold Loganville GA 513 29 10 23:23.2 7:33/M
2 Erin Richardson Snellville GA 660 29 68 32:45.2 10:34/M
3 Justine Tobin Lawrenceville GA 687 29 77 33:49.6 10:55/M
4 Elizabeth Elliott Athens GA 580 25 81 34:34.9 11:09/M
5 Belle Wheeler Commerce GA 694 27 87 35:10.1 11:21/M
6 Jessica Dunn Grayson GA 578 28 95 36:47.5 11:52/M
7 Latasha Bishop Commerce GA 532 27 99 37:20.8 12:03/M
8 Teresa Popp Athens GA 656 25 105 38:52.4 12:32/M
9 Allison Crawford Jefferson GA 559 28 108 39:12.4 12:39/M
10 Jessica Cooper Athens GA 558 27 114 39:43.2 12:49/M
11 Whitney Wilbanks Nicholson GA 696 27 132 41:40.0 13:26/M
12 Brittany Strickland Watkinsville GA 684 25 162 47:50.9 15:26/M
13 Julia Collins Hull GA 555 28 186 54:40.8 17:38/M
Top

Male 30 to 34

Place Name City Bib No Age Overall Total Time Pace
1 Justin Ingels Athens GA 724 32 1 17:35.8 5:40/M
2 Anderson Adams Conyers GA 504 31 3 21:08.1 6:49/M
3 Chris Pitts Lavonia GA 652 32 7 22:48.8 7:21/M
4 Jon Bishop Commerce GA 531 30 17 24:40.9 7:57/M
5 Josh Smith Nicholson GA 676 31 54 31:10.3 10:03/M
6 Josh Fincher Tignall GA 582 32 64 32:29.6 10:29/M
7 Joel Adair Bogart GA 501 34 190 1:06:54.5 21:35/M
Top

Female 30 to 34

Place Name City Bib No Age Overall Total Time Pace
1 Ginny Ingels Athens GA 726 32 42 29:45.6 9:36/M
2 Amber Reeves Covington GA 659 34 44 30:10.1 9:44/M
3 Melissa Day-Rodriguez Lawrenceville GA 568 33 76 33:47.8 10:54/M
4 Kimberly Grizzle Monroe GA 598 30 89 35:26.3 11:26/M
5 Beth Woods Athens GA 702 33 97 37:08.3 11:59/M
6 Rachel Wilbur-Carlyle Suwanee GA 551 33 100 37:34.0 12:07/M
7 Sherry Smith Nicholson GA 679 30 127 41:12.0 13:17/M
8 Shannon Robertson Loganville GA 661 31 144 43:30.9 14:02/M
9 Heather Cash Homer GA 552 31 165 47:57.0 15:28/M
10 Melissa Adair Bogart GA 502 34 166 48:14.8 15:34/M
11 Kayla Jarrells Nicholson GA 616 32 174 50:20.7 16:14/M
12 Tiffany Brown Commerce GA 543 33 176 51:26.6 16:35/M
13 Jessica Dockery Commerce GA 572 30 187 1:04:50.0 20:55/M
Top

Male 35 to 39

Place Name City Bib No Age Overall Total Time Pace
1 David Duncan Bogart GA 575 39 2 19:24.0 6:15/M
2 David Walton Bogart GA 733 38 80 34:12.5 11:02/M
3 Kevin Crowe Athens GA 560 38 98 37:12.1 12:00/M
4 Ben Dickerson Commerce GA 569 38 126 41:00.5 13:14/M
5 Brian Wilson Commerce GA 699 36 133 41:46.2 13:28/M
6 Eric Pennington Jefferson GA 649 36 164 47:53.4 15:27/M
Top

Female 35 to 39

Place Name City Bib No Age Overall Total Time Pace
1 Stephanie Cleveland Winterville GA 738 35 12 23:44.8 7:39/M
2 Jennifer Thompson Whaley Winder GA 730 38 15 24:09.6 7:47/M
3 Ginger Pitts Lavonia GA 653 38 45 30:13.5 9:45/M
4 Kierstin Walton Bogart GA 732 38 79 33:59.8 10:58/M
5 Kate Mowbray 728 36 107 38:58.8 12:34/M
6 Manda Barnett Commerce GA 523 38 110 39:13.7 12:39/M
7 Lynn Marchman Athens GA 634 39 112 39:40.7 12:48/M
8 Jennifer Duncan Bogart GA 577 37 130 41:24.5 13:21/M
9 Amanda Massey Nicholson GA 635 37 134 41:52.3 13:30/M
10 Melissa Davis Athens GA 566 36 154 44:34.8 14:23/M
11 April Weaver Commerce GA 691 38 155 44:37.9 14:24/M
12 Erin Leach Athens GEORGIA 629 35 157 45:27.8 14:40/M
13 Jenny Palmer Danielsville GA 643 38 178 52:11.6 16:50/M
14 Jamie Lovett Bogart GA 632 38 183 53:46.0 17:21/M
Top

Male 40 to 44

Place Name City Bib No Age Overall Total Time Pace
1 Steve Stephens Maysville GA 683 44 20 25:22.8 8:11/M
2 Kevin Weaver Commerce GA 693 41 39 29:29.8 9:31/M
3 Matthew Leach Athens GA 630 40 46 30:25.1 9:49/M
4 Ted Harris Watkinsville GA 607 44 62 32:17.8 10:25/M
5 Scott Colcord Winder GA 736 44 72 32:59.9 10:38/M
6 Dan Smith Athens GA 674 40 73 33:08.7 10:41/M
7 Tommy Palmer Danielsville GA 645 41 117 40:21.9 13:01/M
8 Zachary Bailey Loganville GA 516 41 171 49:32.9 15:59/M
Top

Female 40 to 44

Place Name City Bib No Age Overall Total Time Pace
1 Meg Perry Winder GA 651 41 47 30:34.2 9:52/M
2 Cindy Stephens Maysville GA 681 40 53 30:57.5 9:59/M
3 Jenney Roundtree Bethlehem GA 663 42 56 31:36.0 10:12/M
4 Christina Bailey Loganville GA 729 43 59 32:06.1 10:21/M
5 Heather L Sloan Winterville GA 670 44 122 40:43.0 13:08/M
6 April Sass Statham GA 664 44 135 42:36.2 13:45/M
7 Katie Smith Athens GA 677 40 147 44:00.7 14:12/M
8 Amy Batal Watkinsville GA 525 41 169 49:03.9 15:49/M
9 Amanda Wilson Commerce GA 698 43 182 53:14.3 17:10/M
Top

Male 45 to 49

Place Name City Bib No Age Overall Total Time Pace
1 Jeff Hood Watkinsville GA 735 49 11 23:39.6 7:38/M
2 Carl Fuller Winder GA 708 45 14 24:03.8 7:45/M
3 Mark Polson Monroe GA 655 45 96 36:51.2 11:53/M
4 John Dorminy Mcdonough GA 719 45 102 37:56.2 12:14/M
5 Todd Shultz Danielsville GA 669 47 137 42:55.7 13:51/M
6 Ed Long Athens GA 739 49 156 45:02.8 14:32/M
Top

Female 45 to 49

Place Name City Bib No Age Overall Total Time Pace
1 Patty Melnick Athens GA 639 45 37 29:20.4 9:28/M
2 Sherri Price Athens GA 657 48 50 30:50.7 9:57/M
3 Norma Young Watkinsville GA 705 47 74 33:39.2 10:51/M
4 Holly Berejikian Athens GA 527 48 104 38:17.5 12:21/M
Top

Male 50 to 54

Place Name City Bib No Age Overall Total Time Pace
1 Mark Townsend Watkinsville GA 688 51 9 23:20.9 7:32/M
2 Steve Hartley Eastanollee GA 710 53 19 25:09.5 8:07/M
3 Paul Guest Nicholson GA 600 52 31 27:59.4 9:02/M
Top

Female 50 to 54

Place Name City Bib No Age Overall Total Time Pace
1 Mary Beth Forwood Bishop GA 584 51 26 26:12.9 8:27/M
2 Sharon Williams Winder GA 697 52 61 32:10.2 10:23/M
3 Susan McGarity Dahlonega GA 717 52 66 32:40.0 10:32/M
4 Pamela Adams Athens GA 509 53 115 39:43.6 12:49/M
5 Sara Whitmire Conyers GA 706 50 119 40:37.2 13:06/M
6 Sherri Ballew Watkinsville GA 520 51 143 43:27.9 14:01/M
7 Lynn Savage Watkinsville GA 665 54 177 51:49.1 16:43/M
8 Derita Adams Watkinsville GA 506 51 179 52:41.7 17:00/M
9 Ellen Morris Monroe GA 742 52 185 53:58.4 17:25/M
Top

Male 55 to 59

Place Name City Bib No Age Overall Total Time Pace
1 Rick Hayes Dahlonega GA 716 56 13 23:47.7 7:40/M
2 Keith Lester Athens GA 631 56 51 30:51.2 9:57/M
3 Jerry Cunningham Clarkesville GA 562 57 83 34:44.3 11:12/M
4 Steve Bryant Watkinsville GA 545 56 92 36:20.7 11:43/M
Top

Female 55 to 59

Place Name City Bib No Age Overall Total Time Pace
1 Loraine Hillard Flowery Branch GA 611 55 8 23:17.3 7:31/M
2 Linda Hunt Loganville GA 613 56 32 28:06.0 9:04/M
3 Allyn Timberlake Athens GA 686 55 63 32:22.4 10:26/M
4 Peggy Bryant Watkinsville GA 544 57 94 36:45.0 11:51/M
5 Sheila Grizzle Jefferson GA 599 57 113 39:42.1 12:48/M
6 Fran Blackburn Monroe GA 534 56 120 40:38.4 13:06/M
7 Jean Rodriguez Winder GA 662 55 121 40:40.7 13:07/M
8 Cindy Roop Commerce GA 515 56 123 40:45.0 13:09/M
9 Jeree Wilson Jefferson GA 700 55 136 42:37.5 13:45/M
10 Odessa Jarrells Nicholson GA 618 56 180 53:12.5 17:10/M
Top

Male 60 to 64

Place Name City Bib No Age Overall Total Time Pace
1 Randy Ballew Watkinsville GA 519 61 5 22:25.3 7:14/M
2 Brian Lavender Suwanee GA 628 60 23 25:54.6 8:21/M
3 David Oblinger Alpharetta GA 725 64 43 29:48.6 9:37/M
4 Mike Adams Watkinsville GA 508 62 116 39:54.1 12:52/M
Top

Female 60 to 64

Place Name City Bib No Age Overall Total Time Pace
1 Barbara Taylor Athens GA 685 61 75 33:44.9 10:53/M
2 Monica Burke Bogart GA 547 60 151 44:26.7 14:20/M
3 Janice Duncan Auburn GA 589 63 167 48:36.8 15:41/M
Top

Male 65 to 69

Place Name City Bib No Age Overall Total Time Pace
1 Gary Godfrey Crawford GA 713 68 18 25:04.6 8:05/M
2 Mac Gay Covington GA 731 66 28 26:50.7 8:39/M
3 Gary Hansford Athens GA 603 67 30 27:21.7 8:49/M
4 Bill Chamblee Anderson SC 554 67 40 29:39.1 9:34/M
5 Larry Hayes Cumming GA 608 66 57 31:43.3 10:14/M
6 John Gregg Watkinsville GA 592 67 78 33:58.0 10:57/M
7 Pete Pellegrini Bogart GA 647 67 152 44:29.6 14:21/M
8 Ernest Smallman Atlanta GA 671 69 159 46:38.6 15:03/M
Top

Female 65 to 69

Place Name City Bib No Age Overall Total Time Pace
1 Mary Hayes Cumming GA 609 65 82 34:43.5 11:12/M
2 Francoise Fussell Walhalla SC 587 66 145 43:40.6 14:05/M
Top

Male 70 to 74

Place Name City Bib No Age Overall Total Time Pace
1 William Tweedell Hull GA 689 70 48 30:40.5 9:54/M
2 Jim Latimer Gainesville GA 711 73 60 32:07.2 10:22/M
3 Bill Costantino Jefferson GA 556 71 90 35:32.7 11:28/M
4 Wilson Page Athens GA 641 72 158 46:37.7 15:02/M
Top

Female 70 to 74

Place Name City Bib No Age Overall Total Time Pace
1 Mary Lou Kau Athens GA 620 72 150 44:13.0 14:16/M
2 Ann Bunce Winterville GA 546 72 161 47:43.8 15:24/M
Top

Female 75 to 79

Place Name City Bib No Age Overall Total Time Pace
1 Anne Patrick Smyrna GA 666 78 170 49:22.9 15:55/M